Time;durP1;ratioP1;P1;durP2;ratioP2;P2;SDS_P1;SDS_P2;PMS_P1;PMS_P2;Temp;Humidity;BMP_temperature;BMP_pressure;BME280_temperature;BME280_humidity;BME280_pressure;Samples;Min_cycle;Max_cycle;Signal;HPM_P1;HPM_P2
2020/12/09 00:01:22;;;;;;;30.58;16.08;;;5.10;94.90;;;;;;5098404;28;20016;-90
2020/12/09 00:03:47;;;;;;;30.63;15.55;;;5.10;94.70;;;;;;5066951;28;20053;-89
2020/12/09 00:06:13;;;;;;;31.30;16.77;;;5.10;94.60;;;;;;5090802;28;20031;-89
2020/12/09 00:08:39;;;;;;;29.13;15.75;;;5.10;94.60;;;;;;5090444;28;20061;-89
2020/12/09 00:11:08;;;;;;;26.70;14.57;;;5.10;94.60;;;;;;5096818;28;20066;-87
2020/12/09 00:13:34;;;;;;;29.35;16.27;;;5.10;94.60;;;;;;5092083;28;20031;-89
2020/12/09 00:16:00;;;;;;;27.33;14.90;;;5.10;94.60;;;;;;5060847;28;20024;-89
2020/12/09 00:18:26;;;;;;;26.77;14.50;;;5.00;94.80;;;;;;5061613;28;20530;-89
2020/12/09 00:20:51;;;;;;;26.98;15.45;;;5.10;94.60;;;;;;5074985;28;20028;-89
2020/12/09 00:23:17;;;;;;;26.35;15.70;;;5.10;94.50;;;;;;5060701;28;20024;-90
2020/12/09 00:25:43;;;;;;;25.75;15.38;;;5.00;94.50;;;;;;5095339;28;20028;-90
2020/12/09 00:28:09;;;;;;;26.50;15.55;;;5.00;94.50;;;;;;5071306;28;20066;-89
2020/12/09 00:30:34;;;;;;;25.63;15.85;;;5.00;94.50;;;;;;5084458;28;20016;-89
2020/12/09 00:33:01;;;;;;;23.42;14.27;;;4.90;94.50;;;;;;5076857;28;20450;-89
2020/12/09 00:35:27;;;;;;;23.05;13.88;;;4.90;94.60;;;;;;5076787;28;20656;-88
2020/12/09 00:37:53;;;;;;;28.42;16.27;;;4.90;94.60;;;;;;5059902;28;20035;-88
2020/12/09 00:40:18;;;;;;;27.63;16.25;;;4.90;94.60;;;;;;5077220;28;20016;-88
2020/12/09 00:42:45;;;;;;;29.35;16.73;;;4.90;94.60;;;;;;5040069;28;20119;-88
2020/12/09 00:45:10;;;;;;;25.33;16.35;;;4.80;94.50;;;;;;5081893;28;20392;-88
2020/12/09 00:47:42;;;;;;;25.45;15.75;;;4.80;94.70;;;;;;5048891;28;20032;-89
2020/12/09 00:52:42;;;;;;;25.17;14.80;;;4.80;94.40;;;;;;5095427;28;20032;-88
2020/12/09 00:55:08;;;;;;;28.13;16.67;;;4.70;94.40;;;;;;5094286;28;20068;-88
2020/12/09 00:57:38;;;;;;;31.30;17.85;;;4.70;94.50;;;;;;5078186;28;20081;-88
2020/12/09 01:00:06;;;;;;;27.33;15.82;;;4.70;94.40;;;;;;5069496;28;20025;-88
2020/12/09 01:02:32;;;;;;;25.30;14.45;;;4.70;94.50;;;;;;5061017;28;20066;-89
2020/12/09 01:04:57;;;;;;;25.15;14.82;;;4.70;94.50;;;;;;5076686;28;20029;-89
2020/12/09 01:07:23;;;;;;;24.92;13.48;;;4.70;94.50;;;;;;5043242;28;20020;-90
2020/12/09 01:09:49;;;;;;;24.10;14.13;;;4.70;94.50;;;;;;5105771;28;20534;-90
2020/12/09 01:12:14;;;;;;;23.05;14.02;;;4.70;94.50;;;;;;5077138;28;20028;-89
2020/12/09 01:14:41;;;;;;;25.35;13.52;;;4.70;94.50;;;;;;5096591;28;20032;-92
2020/12/09 01:17:07;;;;;;;27.27;14.07;;;4.70;94.50;;;;;;5061294;28;20019;-93
2020/12/09 01:19:32;;;;;;;21.80;12.93;;;4.70;94.50;;;;;;5090386;28;20027;-89
2020/12/09 01:21:58;;;;;;;21.15;12.38;;;4.70;94.70;;;;;;5077502;28;20035;-89
2020/12/09 01:24:24;;;;;;;22.48;13.10;;;4.70;94.50;;;;;;5060702;28;20024;-89
2020/12/09 01:26:50;;;;;;;23.55;13.57;;;4.70;94.50;;;;;;5041521;28;20056;-89
2020/12/09 01:29:16;;;;;;;24.27;14.25;;;4.70;94.40;;;;;;5093475;28;20119;-89
2020/12/09 01:31:42;;;;;;;23.98;13.88;;;4.70;94.40;;;;;;5097855;28;20063;-88
2020/12/09 01:34:08;;;;;;;23.50;13.82;;;4.70;94.40;;;;;;5073821;28;20039;-88
2020/12/09 01:36:33;;;;;;;25.88;14.38;;;4.70;94.40;;;;;;5059838;28;20488;-88
2020/12/09 01:38:59;;;;;;;24.55;13.48;;;4.70;94.40;;;;;;5073188;28;20029;-89
2020/12/09 01:41:25;;;;;;;26.48;14.18;;;4.70;94.40;;;;;;5084308;28;20012;-89
2020/12/09 01:43:53;;;;;;;24.30;13.63;;;4.70;94.40;;;;;;5098562;28;20055;-90
2020/12/09 01:46:29;;;;;;;26.70;14.75;;;4.60;94.40;;;;;;5108504;28;20520;-89
2020/12/09 01:48:56;;;;;;;25.70;14.88;;;4.60;94.40;;;;;;5108630;28;20031;-89
2020/12/09 01:51:26;;;;;;;25.92;14.65;;;4.60;94.40;;;;;;5059290;28;20062;-89
2020/12/09 01:53:54;;;;;;;22.90;12.95;;;4.60;94.50;;;;;;5059539;28;20504;-89
2020/12/09 01:56:20;;;;;;;24.92;13.93;;;4.60;94.50;;;;;;5078644;28;20422;-89
2020/12/09 01:58:47;;;;;;;26.02;13.88;;;4.60;94.50;;;;;;5091926;28;20024;-89
2020/12/09 02:01:13;;;;;;;27.65;15.25;;;4.60;94.50;;;;;;5080213;28;20024;-89
2020/12/09 02:03:39;;;;;;;25.08;13.85;;;4.50;94.40;;;;;;5076884;28;20043;-89
2020/12/09 02:06:06;;;;;;;25.52;14.25;;;4.50;94.40;;;;;;5083926;28;20114;-89
2020/12/09 02:08:32;;;;;;;23.58;13.82;;;4.50;94.40;;;;;;5072267;28;20056;-89
2020/12/09 02:10:59;;;;;;;25.23;13.65;;;4.50;94.40;;;;;;5063016;28;20094;-89
2020/12/09 02:13:26;;;;;;;24.52;13.77;;;4.50;94.40;;;;;;5060244;28;20355;-89
2020/12/09 02:15:52;;;;;;;23.02;13.30;;;4.40;94.30;;;;;;5090472;28;20073;-89
2020/12/09 02:18:18;;;;;;;25.02;14.35;;;4.40;94.30;;;;;;5067164;28;20111;-89
2020/12/09 02:20:44;;;;;;;22.00;13.90;;;4.40;94.30;;;;;;5059924;28;20119;-89
2020/12/09 02:23:10;;;;;;;25.20;14.98;;;4.40;94.30;;;;;;5063130;28;20496;-89
2020/12/09 02:25:35;;;;;;;25.05;14.35;;;4.40;94.30;;;;;;5072618;28;20032;-89
2020/12/09 02:31:23;;;;;;;22.02;12.68;;;4.40;94.30;;;;;;5102550;28;20542;-89
2020/12/09 02:33:49;;;;;;;24.30;13.23;;;4.40;94.30;;;;;;5055133;28;20028;-89
2020/12/09 02:36:14;;;;;;;23.98;13.23;;;4.30;94.30;;;;;;5022733;28;20022;-89
2020/12/09 02:38:41;;;;;;;23.58;13.32;;;4.30;94.40;;;;;;5037761;28;20025;-89
2020/12/09 02:41:07;;;;;;;23.63;13.88;;;4.30;94.40;;;;;;5034726;28;20022;-89
2020/12/09 02:43:33;;;;;;;24.67;13.77;;;4.30;94.40;;;;;;5037527;28;20028;-89
2020/12/09 02:45:58;;;;;;;23.65;13.13;;;4.30;94.40;;;;;;5054362;28;20029;-89
2020/12/09 02:48:24;;;;;;;23.23;13.43;;;4.30;94.40;;;;;;5040498;22;20029;-89
2020/12/09 02:50:50;;;;;;;25.80;14.05;;;4.30;94.40;;;;;;5039779;28;20059;-89
2020/12/09 02:53:15;;;;;;;26.27;15.40;;;4.30;94.40;;;;;;5039750;28;20032;-89
2020/12/09 02:55:41;;;;;;;26.67;14.07;;;4.30;94.40;;;;;;5022541;28;20023;-89
2020/12/09 02:58:07;;;;;;;25.92;13.98;;;4.30;94.40;;;;;;5039104;28;20019;-89
2020/12/09 03:00:33;;;;;;;25.90;13.45;;;4.30;94.40;;;;;;5057598;28;20017;-88
2020/12/09 03:02:58;;;;;;;27.88;14.25;;;4.30;94.50;;;;;;5030679;28;20498;-89
2020/12/09 03:08:46;;;;;;;27.15;14.35;;;4.40;94.50;;;;;;5002517;28;20850;-89
2020/12/09 03:11:12;;;;;;;22.88;12.27;;;4.30;94.50;;;;;;5028009;28;20039;-89
2020/12/09 03:13:37;;;;;;;23.58;13.15;;;4.30;94.50;;;;;;5044722;28;20077;-87
2020/12/09 03:16:03;;;;;;;28.75;14.40;;;4.40;94.60;;;;;;5009568;28;20093;-89
2020/12/09 03:18:32;;;;;;;28.80;15.18;;;4.40;94.60;;;;;;5028062;28;20027;-90
2020/12/09 03:20:57;;;;;;;28.55;15.68;;;4.40;94.60;;;;;;5041822;28;20021;-92
2020/12/09 03:23:23;;;;;;;28.15;14.88;;;4.40;94.60;;;;;;5022639;28;20134;-92
2020/12/09 03:25:49;;;;;;;28.10;15.30;;;4.30;94.60;;;;;;5041382;28;20045;-89
2020/12/09 03:28:17;;;;;;;29.13;14.57;;;4.40;94.60;;;;;;4982692;28;20027;-88
2020/12/09 03:30:43;;;;;;;32.60;16.27;;;4.40;94.60;;;;;;5059679;28;20060;-89
2020/12/09 03:33:09;;;;;;;31.50;16.58;;;4.40;94.60;;;;;;5039470;28;20129;-89
2020/12/09 03:35:34;;;;;;;30.80;16.48;;;4.40;94.70;;;;;;5025226;28;20023;-89
2020/12/09 03:38:00;;;;;;;32.25;16.60;;;4.40;94.60;;;;;;5041897;28;20402;-89
2020/12/09 03:40:26;;;;;;;32.50;16.23;;;4.40;94.70;;;;;;4992023;28;20016;-89
2020/12/09 03:42:51;;;;;;;26.15;13.75;;;4.50;94.70;;;;;;5045314;28;20036;-89
2020/12/09 03:45:17;;;;;;;33.58;17.02;;;4.50;94.70;;;;;;5029296;28;20432;-89
2020/12/09 03:47:42;;;;;;;36.95;18.42;;;4.50;94.70;;;;;;5024695;28;20035;-89
2020/12/09 03:50:08;;;;;;;46.58;21.95;;;4.50;94.70;;;;;;5054649;28;20103;-89
2020/12/09 03:52:34;;;;;;;42.70;20.00;;;4.50;94.70;;;;;;5055081;28;20934;-89
2020/12/09 03:55:00;;;;;;;41.03;20.08;;;4.50;94.70;;;;;;5054578;28;20057;-89
2020/12/09 03:57:26;;;;;;;48.47;22.83;;;4.50;94.80;;;;;;5054988;28;20048;-88
2020/12/09 03:59:51;;;;;;;46.58;21.77;;;4.50;94.80;;;;;;5061660;28;20028;-88
2020/12/09 04:02:17;;;;;;;60.00;25.33;;;4.50;94.80;;;;;;5056833;28;20063;-89
2020/12/09 04:04:43;;;;;;;66.00;26.85;;;4.50;94.80;;;;;;5038171;28;20059;-89
2020/12/09 04:07:08;;;;;;;68.95;29.20;;;4.50;94.80;;;;;;5054539;28;20036;-89
2020/12/09 04:09:34;;;;;;;57.58;26.52;;;4.50;94.70;;;;;;5037607;28;20494;-89
2020/12/09 04:12:00;;;;;;;69.13;29.90;;;4.50;94.80;;;;;;5037650;28;20482;-89
2020/12/09 04:14:25;;;;;;;71.78;31.17;;;4.50;94.80;;;;;;5037943;28;20489;-89
2020/12/09 04:16:51;;;;;;;58.33;27.50;;;4.50;94.80;;;;;;5054254;28;20094;-89
2020/12/09 04:19:18;;;;;;;72.65;30.08;;;4.50;94.80;;;;;;5037402;28;20039;-89
2020/12/09 04:21:44;;;;;;;133.23;42.90;;;4.50;94.80;;;;;;5055669;28;20017;-89
2020/12/09 04:24:10;;;;;;;79.80;33.30;;;4.60;94.50;;;;;;5039754;28;20385;-88
2020/12/09 04:26:36;;;;;;;84.00;35.75;;;4.50;94.60;;;;;;5041590;28;20035;-89
2020/12/09 04:29:02;;;;;;;89.93;36.03;;;4.50;94.60;;;;;;5041352;28;20037;-89
2020/12/09 04:31:27;;;;;;;75.30;32.83;;;4.50;94.80;;;;;;5057164;28;20017;-88
2020/12/09 04:34:00;;;;;;;65.75;29.30;;;4.50;94.60;;;;;;5056740;28;20028;-89
2020/12/09 04:36:27;;;;;;;73.40;30.52;;;4.50;94.80;;;;;;5053290;28;20020;-89
2020/12/09 04:38:57;;;;;;;72.53;30.20;;;4.40;94.70;;;;;;5036928;28;20267;-89
2020/12/09 04:41:22;;;;;;;71.57;30.08;;;4.50;94.70;;;;;;5055614;28;20025;-87
2020/12/09 04:43:48;;;;;;;74.97;32.63;;;4.50;94.80;;;;;;5048752;28;20803;-88
2020/12/09 04:46:14;;;;;;;72.32;29.65;;;4.50;94.60;;;;;;5036786;28;20536;-89
2020/12/09 04:48:41;;;;;;;67.53;27.50;;;4.50;94.80;;;;;;5031024;28;20072;-89
2020/12/09 04:51:44;;;;;;;64.57;27.30;;;4.50;94.80;;;;;;5023343;28;20061;-89
2020/12/09 04:54:15;;;;;;;75.68;32.00;;;4.50;94.80;;;;;;5055151;28;20028;-89
2020/12/09 04:56:53;;;;;;;65.78;29.35;;;4.50;94.70;;;;;;5042242;28;20042;-88
2020/12/09 04:59:23;;;;;;;77.70;31.13;;;4.60;94.70;;;;;;5059981;28;20375;-89
2020/12/09 05:02:03;;;;;;;84.35;33.20;;;4.60;94.70;;;;;;5043767;28;20031;-88
2020/12/09 05:04:32;;;;;;;74.30;31.00;;;4.60;94.60;;;;;;5043007;28;20031;-88
2020/12/09 05:07:01;;;;;;;69.75;28.92;;;4.60;94.70;;;;;;5056450;28;20039;-89
2020/12/09 05:09:27;;;;;;;75.80;29.42;;;4.60;94.70;;;;;;5040130;28;20019;-88
2020/12/09 05:12:03;;;;;;;63.45;27.75;;;4.60;94.70;;;;;;5040048;28;20564;-89
2020/12/09 05:14:32;;;;;;;56.08;25.45;;;4.50;94.80;;;;;;5039780;28;20027;-89
2020/12/09 05:16:58;;;;;;;61.95;27.38;;;4.60;94.80;;;;;;5040242;28;20034;-89
2020/12/09 05:19:25;;;;;;;66.68;27.15;;;4.60;94.80;;;;;;5025894;28;20034;-89
2020/12/09 05:21:51;;;;;;;77.32;31.08;;;4.60;94.80;;;;;;5045698;28;20103;-89
2020/12/09 05:24:20;;;;;;;65.55;27.42;;;4.60;94.60;;;;;;5043895;28;20379;-87
2020/12/09 05:26:46;;;;;;;60.65;24.92;;;4.60;94.80;;;;;;5045768;28;20032;-89
2020/12/09 05:29:14;;;;;;;57.95;24.58;;;4.60;94.80;;;;;;5034150;28;20034;-88
2020/12/09 05:31:43;;;;;;;54.58;24.45;;;4.60;94.80;;;;;;5046942;28;20075;-89
2020/12/09 05:34:26;;;;;;;80.15;31.58;;;4.70;94.80;;;;;;5039330;28;20563;-89
2020/12/09 05:36:54;;;;;;;101.72;36.55;;;4.60;94.70;;;;;;5039611;28;20054;-89
2020/12/09 05:39:21;;;;;;;87.40;34.80;;;4.60;94.50;;;;;;5023080;28;20073;-89
2020/12/09 05:41:48;;;;;;;71.00;31.42;;;4.60;94.50;;;;;;5039872;28;20032;-89
2020/12/09 05:44:13;;;;;;;64.40;28.65;;;4.50;94.60;;;;;;5022815;28;20046;-89
2020/12/09 05:46:52;;;;;;;75.50;30.25;;;4.60;94.70;;;;;;5039914;28;20027;-89
2020/12/09 05:49:28;;;;;;;72.15;30.88;;;4.50;94.70;;;;;;4957860;28;20079;-89
2020/12/09 05:52:06;;;;;;;98.72;39.53;;;4.60;94.70;;;;;;5039722;28;20068;-88
2020/12/09 05:54:36;;;;;;;87.97;35.47;;;4.60;94.50;;;;;;5039516;28;20023;-89
2020/12/09 05:57:03;;;;;;;79.20;32.75;;;4.50;94.50;;;;;;5042294;28;20019;-89
2020/12/09 05:59:38;;;;;;;71.40;31.38;;;4.50;94.60;;;;;;5056339;28;20381;-89
2020/12/09 06:02:07;;;;;;;68.60;28.80;;;4.50;94.70;;;;;;5068476;28;20024;-88
2020/12/09 06:04:54;;;;;;;81.30;32.92;;;4.50;94.70;;;;;;5056463;28;20030;-87
2020/12/09 06:07:21;;;;;;;89.97;37.88;;;4.50;94.70;;;;;;5063660;28;20154;-88
2020/12/09 06:10:08;;;;;;;103.10;38.20;;;4.40;94.40;;;;;;5074768;28;20020;-88
2020/12/09 06:12:49;;;;;;;114.93;41.03;;;4.50;94.50;;;;;;5055985;28;20031;-88
2020/12/09 06:15:16;;;;;;;100.80;40.47;;;4.50;94.20;;;;;;5038805;28;20031;-88
2020/12/09 06:17:42;;;;;;;141.18;46.33;;;4.40;94.20;;;;;;5055839;28;20098;-88
2020/12/09 06:20:08;;;;;;;107.63;40.95;;;4.30;94.20;;;;;;5017567;28;20327;-88
2020/12/09 06:22:35;;;;;;;97.03;36.50;;;4.30;94.40;;;;;;5047874;28;20042;-88
2020/12/09 06:25:05;;;;;;;107.13;38.25;;;4.30;94.50;;;;;;5054192;28;20370;-88
2020/12/09 06:27:34;;;;;;;92.75;35.47;;;4.30;94.40;;;;;;5038477;28;20100;-89
2020/12/09 06:30:00;;;;;;;82.78;32.35;;;4.30;94.50;;;;;;5037362;28;20026;-89
2020/12/09 06:32:26;;;;;;;80.38;31.52;;;4.40;94.60;;;;;;4990261;28;20028;-88
2020/12/09 06:35:06;;;;;;;78.70;30.40;;;4.40;94.60;;;;;;5013733;28;20031;-89
2020/12/09 06:38:09;;;;;;;73.75;29.92;;;4.40;94.60;;;;;;5047026;28;20471;-88
2020/12/09 06:40:58;;;;;;;67.30;24.98;;;4.40;94.60;;;;;;5050226;28;20024;-88
2020/12/09 06:43:24;;;;;;;67.82;26.60;;;4.50;94.90;;;;;;5057005;28;20465;-88
2020/12/09 06:45:50;;;;;;;147.98;44.80;;;4.50;94.70;;;;;;5026284;28;20033;-89
2020/12/09 06:48:17;;;;;;;117.93;41.60;;;4.40;94.40;;;;;;5041946;28;20135;-88
2020/12/09 06:50:44;;;;;;;89.75;38.45;;;4.40;94.20;;;;;;5057612;28;20243;-88
2020/12/09 06:53:17;;;;;;;83.13;33.75;;;4.40;94.30;;;;;;5039301;28;20514;-89
2020/12/09 06:55:46;;;;;;;82.00;33.17;;;4.30;94.40;;;;;;4972944;28;20426;-88
2020/12/09 06:58:29;;;;;;;73.15;29.48;;;4.40;94.50;;;;;;4967071;28;20445;-88
2020/12/09 07:01:02;;;;;;;75.40;30.15;;;4.40;94.50;;;;;;4975713;28;20019;-89
2020/12/09 07:03:30;;;;;;;94.13;36.92;;;4.40;94.50;;;;;;5024551;28;20023;-89
2020/12/09 07:06:16;;;;;;;103.28;40.05;;;4.40;94.30;;;;;;5021283;28;20024;-89
2020/12/09 07:08:45;;;;;;;131.38;43.50;;;4.30;94.20;;;;;;4969502;28;20038;-89
2020/12/09 07:11:11;;;;;;;119.25;41.38;;;4.20;94.10;;;;;;5069369;28;20025;-89
2020/12/09 07:13:36;;;;;;;100.95;38.33;;;4.20;94.10;;;;;;5039025;28;20032;-89
2020/12/09 07:16:02;;;;;;;108.70;39.92;;;4.20;94.10;;;;;;5022340;28;20213;-90
2020/12/09 07:18:28;;;;;;;109.88;38.17;;;4.10;94.10;;;;;;5054518;28;20041;-89
2020/12/09 07:20:54;;;;;;;182.40;40.67;;;4.10;94.10;;;;;;5034507;28;20369;-90
2020/12/09 07:23:20;;;;;;;160.52;36.75;;;4.10;94.20;;;;;;5053527;28;20028;-88
2020/12/09 07:25:45;;;;;;;109.90;32.22;;;4.00;94.00;;;;;;5021484;28;20030;-88
2020/12/09 07:28:11;;;;;;;232.30;36.38;;;3.90;94.00;;;;;;5035595;28;20034;-89
2020/12/09 07:30:37;;;;;;;138.27;31.02;;;3.90;93.90;;;;;;4990683;28;20027;-89
2020/12/09 07:33:03;;;;;;;139.70;31.63;;;3.90;93.90;;;;;;5015332;28;20381;-89
2020/12/09 07:35:28;;;;;;;324.80;38.30;;;3.70;93.90;;;;;;5018282;28;20037;-89
2020/12/09 07:37:57;;;;;;;253.50;36.40;;;3.60;93.30;;;;;;5040160;28;20131;-89
2020/12/09 07:40:32;;;;;;;85.00;27.58;;;3.50;93.50;;;;;;5010944;28;20476;-90
2020/12/09 07:43:10;;;;;;;67.78;26.00;;;3.50;93.70;;;;;;5029228;28;20023;-89
2020/12/09 07:45:41;;;;;;;253.27;40.67;;;3.40;93.80;;;;;;4985111;28;20065;-89
2020/12/09 07:48:13;;;;;;;;;;;3.30;93.50;;;;;;4991817;28;20023;-88
2020/12/09 07:50:41;;;;;;;160.43;35.05;;;3.20;93.60;;;;;;5055605;28;19916;-89
2020/12/09 07:53:11;;;;;;;271.60;41.20;;;3.10;93.60;;;;;;5047283;28;20030;-87
2020/12/09 07:55:38;;;;;;;96.30;32.78;;;3.00;93.60;;;;;;5007277;28;20023;-88
2020/12/09 07:58:08;;;;;;;98.82;30.40;;;3.00;93.80;;;;;;4978904;28;20106;-89
2020/12/09 08:00:36;;;;;;;103.20;32.00;;;3.00;93.90;;;;;;5008778;28;20027;-89
2020/12/09 08:03:02;;;;;;;79.40;27.67;;;3.00;93.90;;;;;;5041479;28;20019;-88
2020/12/09 08:05:37;;;;;;;82.13;28.95;;;3.00;94.00;;;;;;5038351;28;20037;-88
2020/12/09 08:08:10;;;;;;;103.25;30.42;;;3.00;94.20;;;;;;5043569;28;20023;-89
2020/12/09 08:10:36;;;;;;;56.58;25.70;;;3.00;93.90;;;;;;5024061;28;20042;-88
2020/12/09 08:13:09;;;;;;;79.90;28.85;;;2.90;94.00;;;;;;5041152;28;20084;-89
2020/12/09 08:15:37;;;;;;;72.45;29.00;;;2.90;93.90;;;;;;5040319;28;20121;-89
2020/12/09 08:18:03;;;;;;;67.35;26.70;;;3.00;94.00;;;;;;5038329;28;20026;-88
2020/12/09 08:20:29;;;;;;;67.95;29.63;;;3.00;94.00;;;;;;5028117;28;20364;-89
2020/12/09 08:23:01;;;;;;;167.68;36.80;;;3.00;94.00;;;;;;5061070;28;20013;-88
2020/12/09 08:25:31;;;;;;;71.32;28.02;;;3.00;93.90;;;;;;5069878;28;20051;-88
2020/12/09 08:28:06;;;;;;;112.50;31.58;;;3.00;94.10;;;;;;5054210;28;20028;-89
2020/12/09 08:30:33;;;;;;;99.43;30.38;;;3.10;93.90;;;;;;5044804;28;20030;-88
2020/12/09 08:33:13;;;;;;;109.50;29.45;;;3.10;93.90;;;;;;5063331;28;20020;-89
2020/12/09 08:35:58;;;;;;;66.45;27.25;;;3.00;93.80;;;;;;5044425;28;20030;-89
2020/12/09 08:38:24;;;;;;;78.57;28.02;;;3.00;93.90;;;;;;5065744;28;20032;-87
2020/12/09 08:40:51;;;;;;;69.30;26.20;;;3.00;93.90;;;;;;5057552;28;20031;-90
2020/12/09 08:43:18;;;;;;;129.48;32.20;;;3.10;94.00;;;;;;5048183;28;20448;-88
2020/12/09 08:45:45;;;;;;;60.75;25.60;;;3.00;93.80;;;;;;5048991;28;20052;-89
2020/12/09 08:50:42;;;;;;;74.68;28.92;;;3.00;93.70;;;;;;5060037;22;20045;-88
2020/12/09 08:53:08;;;;;;;219.00;39.78;;;2.90;93.60;;;;;;4996980;28;20025;-87
2020/12/09 08:55:33;;;;;;;86.07;31.95;;;2.80;93.30;;;;;;5010375;28;20057;-88
2020/12/09 08:57:59;;;;;;;66.80;29.98;;;2.80;93.60;;;;;;5000307;28;20037;-86
2020/12/09 09:00:25;;;;;;;60.42;27.02;;;2.80;93.70;;;;;;5019595;28;20036;-85
2020/12/09 09:02:50;;;;;;;99.65;34.35;;;2.80;93.80;;;;;;5007650;28;20077;-86
2020/12/09 09:05:16;;;;;;;70.13;28.60;;;2.80;93.70;;;;;;4997702;28;20041;-87
2020/12/09 09:07:41;;;;;;;116.43;34.35;;;2.80;93.80;;;;;;4993703;28;20104;-87
2020/12/09 09:10:07;;;;;;;103.10;36.03;;;2.80;93.70;;;;;;5007802;28;20026;-88
2020/12/09 09:12:33;;;;;;;80.60;33.75;;;2.70;93.60;;;;;;5015181;28;20109;-88
2020/12/09 09:14:59;;;;;;;149.07;43.25;;;2.70;93.70;;;;;;4998486;28;20121;-87
2020/12/09 09:17:25;;;;;;;97.78;35.38;;;2.60;93.40;;;;;;4995836;28;20176;-88
2020/12/09 09:19:50;;;;;;;76.30;30.73;;;2.60;93.70;;;;;;5000956;28;20601;-88
2020/12/09 09:22:16;;;;;;;65.25;30.38;;;2.60;93.80;;;;;;4997403;28;20112;-85
2020/12/09 09:24:41;;;;;;;63.25;27.92;;;2.60;93.80;;;;;;5000674;28;20030;-89
2020/12/09 09:27:11;;;;;;;109.15;37.08;;;2.60;93.80;;;;;;4999810;28;20047;-89
2020/12/09 09:29:37;;;;;;;127.03;37.95;;;2.70;93.70;;;;;;5031078;28;20021;-88
2020/12/09 09:32:04;;;;;;;155.68;41.20;;;2.60;93.60;;;;;;5019125;28;20021;-86
2020/12/09 09:34:30;;;;;;;184.75;45.35;;;2.60;93.70;;;;;;5015997;28;20425;-88
2020/12/09 09:36:56;;;;;;;75.03;31.73;;;2.40;93.60;;;;;;5001071;28;20026;-88
2020/12/09 09:39:21;;;;;;;181.18;39.78;;;2.40;93.70;;;;;;4999870;28;20041;-88
2020/12/09 09:41:47;;;;;;;173.57;42.92;;;2.30;93.70;;;;;;5000126;28;20112;-88
2020/12/09 09:44:13;;;;;;;207.07;46.78;;;2.30;93.80;;;;;;5000680;28;20040;-88
2020/12/09 09:46:39;;;;;;;175.73;44.08;;;2.30;93.90;;;;;;5016457;28;20112;-88
2020/12/09 09:49:05;;;;;;;95.32;36.25;;;2.20;94.00;;;;;;5017493;28;20021;-88
2020/12/09 09:51:30;;;;;;;141.82;39.75;;;2.10;94.20;;;;;;5000893;28;20075;-88
2020/12/09 09:53:56;;;;;;;140.35;43.42;;;2.20;94.20;;;;;;5014858;28;20108;-88
2020/12/09 09:56:21;;;;;;;164.30;43.33;;;2.10;94.30;;;;;;5000209;28;20029;-88
2020/12/09 09:58:47;;;;;;;125.35;38.97;;;2.00;94.50;;;;;;5003311;28;20022;-88
2020/12/09 10:01:14;;;;;;;182.73;45.10;;;1.90;94.50;;;;;;5013778;28;20026;-88
2020/12/09 10:03:40;;;;;;;209.43;45.92;;;1.90;94.50;;;;;;5029135;28;20052;-87
2020/12/09 10:06:05;;;;;;;219.32;49.63;;;1.90;94.50;;;;;;5009285;28;20068;-88
2020/12/09 10:08:31;;;;;;;104.25;35.58;;;2.00;94.60;;;;;;5001273;28;20025;-88
2020/12/09 10:11:01;;;;;;;94.85;34.35;;;2.00;94.60;;;;;;4995764;28;20493;-88
2020/12/09 10:13:27;;;;;;;143.60;40.97;;;2.10;94.60;;;;;;5015328;28;20493;-88
2020/12/09 10:15:53;;;;;;;165.73;43.47;;;2.10;94.60;;;;;;4998628;28;20025;-88
2020/12/09 10:18:18;;;;;;;103.57;36.08;;;2.10;94.50;;;;;;5002713;28;20025;-88
2020/12/09 10:20:44;;;;;;;152.95;41.35;;;2.20;94.60;;;;;;5002410;28;20026;-88
2020/12/09 10:23:09;;;;;;;146.60;40.40;;;2.20;94.50;;;;;;5002778;28;20540;-92
2020/12/09 10:25:35;;;;;;;103.47;36.63;;;2.20;94.40;;;;;;5015183;28;20040;-92
2020/12/09 10:28:01;;;;;;;149.27;40.47;;;2.20;94.50;;;;;;5043666;28;20094;-91
2020/12/09 10:30:26;;;;;;;80.70;34.90;;;2.30;94.50;;;;;;5012314;28;20101;-93
2020/12/09 10:32:52;;;;;;;104.88;36.28;;;2.20;94.40;;;;;;5004225;28;20022;-92
2020/12/09 10:35:18;;;;;;;157.13;38.72;;;2.30;94.50;;;;;;5016704;28;20034;-92
2020/12/09 10:37:43;;;;;;;112.72;37.97;;;2.10;94.20;;;;;;5005640;28;20056;-87
2020/12/09 10:40:09;;;;;;;234.10;48.95;;;2.10;94.30;;;;;;5007068;28;20490;-88
2020/12/09 10:42:35;;;;;;;132.45;39.72;;;2.10;94.30;;;;;;5018687;28;20410;-88
2020/12/09 10:45:00;;;;;;;139.18;39.53;;;2.00;94.40;;;;;;4983143;28;20064;-88
2020/12/09 10:47:26;;;;;;;159.65;43.22;;;2.00;94.30;;;;;;5033291;28;20044;-88
2020/12/09 10:49:52;;;;;;;110.53;35.95;;;2.00;94.30;;;;;;5015531;28;20085;-88
2020/12/09 10:52:17;;;;;;;179.18;44.67;;;2.00;94.40;;;;;;5001626;28;20120;-88
2020/12/09 10:54:43;;;;;;;169.27;43.20;;;2.00;94.20;;;;;;5001635;28;20049;-88
2020/12/09 10:57:09;;;;;;;140.88;43.35;;;1.90;94.30;;;;;;5001661;28;20534;-88
2020/12/09 10:59:35;;;;;;;108.68;38.20;;;1.80;94.50;;;;;;5017246;28;20029;-88
2020/12/09 11:02:00;;;;;;;128.00;38.17;;;1.70;94.50;;;;;;5002025;28;20356;-89
2020/12/09 11:04:26;;;;;;;90.70;32.53;;;1.70;94.50;;;;;;5001809;28;20103;-88
2020/12/09 11:06:52;;;;;;;91.55;33.65;;;1.80;94.60;;;;;;5001873;28;20028;-88
2020/12/09 11:09:17;;;;;;;103.88;36.38;;;1.80;94.60;;;;;;5010885;28;20043;-88
2020/12/09 11:11:46;;;;;;;98.38;35.83;;;1.90;94.60;;;;;;5004101;28;20088;-88
2020/12/09 11:14:18;;;;;;;82.55;31.83;;;1.90;94.50;;;;;;5002962;28;20025;-88
2020/12/09 11:16:44;;;;;;;103.40;36.10;;;1.90;94.50;;;;;;5018289;28;20013;-88
2020/12/09 11:19:09;;;;;;;108.22;36.17;;;1.90;94.50;;;;;;5018024;28;20116;-88
2020/12/09 11:21:37;;;;;;;77.40;31.35;;;1.90;94.60;;;;;;5021326;28;20521;-88
2020/12/09 11:24:03;;;;;;;94.50;33.42;;;1.90;94.60;;;;;;5024812;28;20391;-88
2020/12/09 11:26:29;;;;;;;84.40;29.15;;;1.90;94.50;;;;;;5041727;28;20025;-87
2020/12/09 11:28:55;;;;;;;122.82;38.17;;;2.00;94.60;;;;;;5025282;28;20033;-88
2020/12/09 11:31:23;;;;;;;103.80;34.67;;;2.00;94.50;;;;;;5015279;28;20040;-88
2020/12/09 11:33:50;;;;;;;101.25;33.45;;;2.00;94.40;;;;;;5004476;28;20417;-88
2020/12/09 11:36:20;;;;;;;103.53;31.10;;;2.00;94.40;;;;;;5002827;28;20021;-88
2020/12/09 11:38:45;;;;;;;117.57;36.22;;;2.00;94.60;;;;;;5002863;28;20076;-88
2020/12/09 11:41:11;;;;;;;92.22;31.70;;;2.00;94.60;;;;;;5027294;28;20048;-87
2020/12/09 11:43:37;;;;;;;90.65;30.98;;;2.00;94.40;;;;;;5026693;28;20033;-88
2020/12/09 11:46:02;;;;;;;106.93;32.67;;;2.00;94.50;;;;;;5001611;28;20056;-88
2020/12/09 11:48:28;;;;;;;101.57;32.75;;;2.00;94.50;;;;;;5017871;28;20058;-88
2020/12/09 11:50:54;;;;;;;141.43;37.33;;;2.10;94.50;;;;;;5001584;28;20467;-88
2020/12/09 11:53:19;;;;;;;99.47;32.42;;;2.10;94.60;;;;;;5003703;28;20433;-89
2020/12/09 11:55:46;;;;;;;107.38;32.83;;;2.10;94.60;;;;;;5001459;28;20025;-89
2020/12/09 11:58:13;;;;;;;99.57;31.58;;;2.20;94.90;;;;;;5018628;28;20045;-88
2020/12/09 12:00:38;;;;;;;151.82;39.58;;;2.30;94.70;;;;;;5017100;28;20065;-88
2020/12/09 12:03:04;;;;;;;127.15;36.22;;;2.30;94.60;;;;;;5000939;28;20328;-89
2020/12/09 12:05:33;;;;;;;137.68;39.42;;;2.40;94.60;;;;;;5001352;28;20063;-89
2020/12/09 12:07:58;;;;;;;115.15;34.17;;;2.40;94.60;;;;;;4985844;28;20037;-89
2020/12/09 12:10:24;;;;;;;155.25;42.22;;;2.40;94.60;;;;;;5001782;28;20034;-88
2020/12/09 12:12:50;;;;;;;114.45;35.53;;;2.50;94.50;;;;;;5023197;28;20029;-88
2020/12/09 12:15:15;;;;;;;122.30;38.28;;;2.50;94.50;;;;;;5010164;28;20030;-88
2020/12/09 12:17:41;;;;;;;135.68;39.25;;;2.50;94.50;;;;;;5002061;28;20022;-88
2020/12/09 12:20:06;;;;;;;132.35;36.47;;;2.40;94.40;;;;;;5001230;28;20482;-88
2020/12/09 12:22:32;;;;;;;138.27;36.88;;;2.40;94.40;;;;;;4982664;28;20025;-88
2020/12/09 12:24:58;;;;;;;180.82;45.90;;;2.40;94.40;;;;;;5015223;28;20485;-89
2020/12/09 12:27:24;;;;;;;140.20;40.42;;;2.40;94.50;;;;;;5020890;28;20042;-88
2020/12/09 12:29:50;;;;;;;125.07;36.47;;;2.40;94.50;;;;;;5005008;28;20443;-88
2020/12/09 12:32:16;;;;;;;114.38;36.75;;;2.40;94.50;;;;;;5029739;28;20039;-88
2020/12/09 12:34:42;;;;;;;112.72;35.47;;;2.40;94.50;;;;;;5025444;28;20033;-88
2020/12/09 12:37:07;;;;;;;152.80;41.53;;;2.50;94.50;;;;;;5028457;28;20044;-88
2020/12/09 12:39:33;;;;;;;147.88;41.50;;;2.50;94.50;;;;;;5013464;28;20038;-88
2020/12/09 12:41:58;;;;;;;175.57;46.92;;;2.50;94.40;;;;;;5017722;28;20022;-89
2020/12/09 12:44:24;;;;;;;150.25;43.20;;;2.50;94.40;;;;;;5035900;28;20033;-88
2020/12/09 12:46:50;;;;;;;145.38;40.75;;;2.40;94.30;;;;;;5023473;28;20025;-88